Ireland, Texas
Current Conditions -  °F | °C
As of 10:15 PM on Friday 19 Dec 2014 (Local Time) from KGOP Reporting Station
Broken Clouds Broken Clouds  
Wind Chill: 44°   Ceiling: 1100
Heat Index: 46°   Visibility: 5mi
Dew Point: 46°   Wind: 5mph
Humidity: 100%   Direction: 360°N
Pressure: 30.23"   Gusts: NA
Location:  31.5973°N, 97.7586°W
Report Text: KGOP 200415Z AUTO 36004KT 5SM BKN011 08/08 A3023 RMK AO2 PWINO
Loading
Personal Weather Stations






























Interactive Weather Map New forecast layout! Learn more

10-Day Weather Forecast

Advertisements
Track Severe Weather on mobile